createdAt,value
2023-05-04T00:00:36.200Z,78.67
2023-05-04T00:03:02.970Z,78.95
2023-05-04T00:05:29.697Z,78.75
2023-05-04T00:07:57.601Z,78.85
2023-05-04T00:10:24.401Z,79.25
2023-05-04T00:12:50.947Z,79.28
2023-05-04T00:15:17.498Z,79.09
2023-05-04T00:17:44.123Z,79.12
2023-05-04T00:20:11.948Z,78.94
2023-05-04T00:22:38.797Z,78.60
2023-05-04T00:25:08.155Z,78.55
2023-05-04T00:27:34.665Z,77.92
2023-05-04T00:30:01.266Z,78.24
2023-05-04T00:32:27.895Z,78.10
2023-05-04T00:34:55.785Z,79.48
2023-05-04T00:37:22.393Z,80.86
2023-05-04T00:39:49.053Z,81.60
2023-05-04T00:42:16.950Z,81.63
2023-05-04T00:44:43.597Z,82.06
2023-05-04T00:47:11.282Z,81.77
2023-05-04T00:49:37.893Z,82.58
2023-05-04T00:52:05.917Z,82.64
2023-05-04T00:54:34.118Z,82.46
2023-05-04T00:57:00.759Z,82.79
2023-05-04T00:59:28.754Z,82.41
2023-05-04T01:01:55.496Z,81.98
2023-05-04T01:04:22.130Z,82.47
2023-05-04T01:06:57.836Z,82.01
2023-05-04T01:09:35.795Z,82.11
2023-05-04T01:12:06.866Z,81.37
2023-05-04T01:14:36.006Z,81.50
2023-05-04T01:17:04.362Z,81.38
2023-05-04T01:19:31.377Z,81.69
2023-05-04T01:21:59.335Z,81.31
2023-05-04T01:24:28.767Z,82.39
2023-05-04T01:27:00.236Z,84.02
2023-05-04T01:29:33.256Z,84.36
2023-05-04T01:32:01.203Z,85.07
2023-05-04T01:34:27.872Z,84.96
2023-05-04T01:36:54.928Z,84.90
2023-05-04T01:39:22.875Z,84.79
2023-05-04T01:41:49.710Z,85.11
2023-05-04T01:44:16.398Z,86.07
2023-05-04T01:46:43.816Z,86.28
2023-05-04T01:49:10.449Z,86.48
2023-05-04T01:51:37.081Z,86.67
2023-05-04T01:54:03.828Z,87.25
2023-05-04T01:56:32.323Z,86.79
2023-05-04T01:58:58.859Z,86.80
2023-05-04T02:01:25.549Z,86.61
2023-05-04T02:03:52.296Z,86.50
2023-05-04T02:06:19.084Z,86.88
2023-05-04T02:08:46.362Z,86.74
2023-05-04T02:11:13.087Z,86.73
2023-05-04T02:13:40.981Z,86.72
2023-05-04T02:16:07.968Z,86.75
2023-05-04T02:18:34.729Z,86.55
2023-05-04T02:21:01.647Z,86.67
2023-05-04T02:23:28.224Z,86.82
2023-05-04T02:25:55.121Z,86.74
2023-05-04T02:28:21.871Z,86.93
2023-05-04T02:30:49.964Z,87.12
2023-05-04T02:33:16.646Z,87.39
2023-05-04T02:35:43.567Z,87.11
2023-05-04T02:38:10.681Z,87.21
2023-05-04T02:40:39.661Z,86.94
2023-05-04T02:43:06.176Z,87.01
2023-05-04T02:45:35.018Z,86.85
2023-05-04T02:48:03.276Z,86.45
2023-05-04T02:50:30.604Z,86.68
2023-05-04T02:52:57.205Z,86.45
2023-05-04T02:55:23.832Z,86.06
2023-05-04T02:57:50.510Z,86.39
2023-05-04T03:00:17.741Z,86.62
2023-05-04T03:02:44.601Z,87.06
2023-05-04T03:05:12.784Z,87.20
2023-05-04T03:07:39.417Z,87.41
2023-05-04T03:10:07.951Z,87.71
2023-05-04T03:12:34.757Z,87.61
2023-05-04T03:15:01.985Z,87.34
2023-05-04T03:17:28.626Z,87.44
2023-05-04T03:19:56.046Z,87.13
2023-05-04T03:22:24.311Z,87.17
2023-05-04T03:24:51.112Z,86.68
2023-05-04T03:27:18.380Z,87.14
2023-05-04T03:29:45.012Z,87.62
2023-05-04T03:32:11.633Z,87.56
2023-05-04T03:34:38.366Z,88.04
2023-05-04T03:37:06.240Z,88.36
2023-05-04T03:39:34.214Z,88.26
2023-05-04T03:42:00.719Z,88.02
2023-05-04T03:44:27.386Z,88.20
2023-05-04T03:46:54.265Z,88.66
2023-05-04T03:49:21.293Z,88.91
2023-05-04T03:51:47.882Z,88.74
2023-05-04T03:54:14.495Z,88.70
2023-05-04T03:56:42.671Z,88.51
2023-05-04T03:59:09.556Z,88.80
2023-05-04T04:01:36.512Z,88.93
2023-05-04T04:04:03.404Z,88.87
2023-05-04T04:06:30.688Z,88.84
2023-05-04T04:08:57.305Z,89.01
2023-05-04T04:11:23.831Z,88.90
2023-05-04T04:13:52.044Z,89.24
2023-05-04T04:16:18.635Z,89.30
2023-05-04T04:18:45.305Z,89.35
2023-05-04T04:21:11.967Z,89.72
2023-05-04T04:23:38.603Z,89.89
2023-05-04T04:26:05.201Z,89.63
2023-05-04T04:28:32.052Z,89.53
2023-05-04T04:31:00.718Z,89.68
2023-05-04T04:33:27.450Z,89.53
2023-05-04T04:35:54.309Z,89.67
2023-05-04T04:38:20.923Z,89.89
2023-05-04T04:40:47.461Z,89.64
2023-05-04T04:43:14.123Z,89.91
2023-05-04T04:45:40.733Z,89.59
2023-05-04T04:48:08.821Z,90.20
2023-05-04T04:50:38.781Z,89.92
2023-05-04T04:53:05.658Z,89.96
2023-05-04T04:55:32.233Z,89.88
2023-05-04T04:57:58.851Z,89.69
2023-05-04T05:00:25.777Z,89.93
2023-05-04T05:02:52.425Z,89.56
2023-05-04T05:05:20.627Z,90.03
2023-05-04T05:07:47.285Z,90.57
2023-05-04T05:10:14.031Z,90.09
2023-05-04T05:12:40.951Z,90.08
2023-05-04T05:15:08.924Z,90.10
2023-05-04T05:17:35.677Z,89.86
2023-05-04T05:20:02.647Z,89.76
2023-05-04T05:22:30.792Z,89.59
2023-05-04T05:24:57.356Z,89.33
2023-05-04T05:27:24.004Z,89.83
2023-05-04T05:29:50.569Z,89.95
2023-05-04T05:32:17.218Z,89.53
2023-05-04T05:34:44.096Z,90.05
2023-05-04T05:37:10.693Z,89.97
2023-05-04T05:39:38.594Z,89.43
2023-05-04T05:42:05.331Z,89.06
2023-05-04T05:44:31.883Z,88.66
2023-05-04T05:46:58.433Z,88.91
2023-05-04T05:49:25.031Z,90.12
2023-05-04T05:51:51.631Z,90.66
2023-05-04T05:54:18.139Z,90.74
2023-05-04T05:56:46.325Z,90.82
2023-05-04T05:59:12.831Z,90.77
2023-05-04T06:01:39.495Z,90.12
2023-05-04T06:04:06.302Z,89.53
2023-05-04T06:06:33.053Z,88.72
2023-05-04T06:08:59.635Z,87.70
2023-05-04T06:11:26.338Z,87.01
2023-05-04T06:13:54.378Z,86.67
2023-05-04T06:16:21.043Z,86.23
2023-05-04T06:18:47.591Z,85.07
2023-05-04T06:21:14.208Z,82.53
2023-05-04T06:23:40.807Z,80.54
2023-05-04T06:26:07.477Z,78.87
2023-05-04T06:28:34.737Z,71.35
2023-05-04T06:31:02.985Z,69.54
2023-05-04T06:33:29.586Z,70.86
2023-05-04T06:35:56.235Z,66.78
2023-05-04T06:38:22.855Z,66.54
2023-05-04T06:40:49.885Z,66.73
2023-05-04T06:43:16.401Z,65.48
2023-05-04T06:45:43.028Z,64.21
2023-05-04T06:48:11.015Z,63.37
2023-05-04T06:50:39.013Z,63.16
2023-05-04T06:53:10.823Z,61.29
2023-05-04T06:55:37.686Z,60.66
2023-05-04T06:58:04.714Z,61.10
2023-05-04T07:00:31.366Z,59.66
2023-05-04T07:02:57.947Z,59.11
2023-05-04T07:05:25.958Z,59.55
2023-05-04T07:07:52.574Z,60.05
2023-05-04T07:10:19.548Z,60.39
2023-05-04T07:12:46.373Z,59.68
2023-05-04T07:15:13.084Z,55.93
2023-05-04T07:17:39.658Z,57.05
2023-05-04T07:20:07.532Z,56.69
2023-05-04T07:22:35.679Z,55.48
2023-05-04T07:25:02.352Z,55.58
2023-05-04T07:27:29.286Z,55.14
2023-05-04T07:29:56.079Z,53.41
2023-05-04T07:32:22.768Z,53.26
2023-05-04T07:34:49.441Z,52.57
2023-05-04T07:37:16.091Z,52.69
2023-05-04T07:39:44.220Z,51.47
2023-05-04T07:42:10.858Z,53.46
2023-05-04T07:44:37.626Z,52.71
2023-05-04T07:47:04.205Z,51.32
2023-05-04T07:49:30.909Z,51.34
2023-05-04T07:51:57.433Z,51.60
2023-05-04T07:54:24.037Z,50.95
2023-05-04T07:56:51.906Z,51.16
2023-05-04T07:59:18.673Z,51.06
2023-05-04T08:01:45.261Z,50.76
2023-05-04T08:04:11.925Z,51.20
2023-05-04T08:06:38.484Z,51.13
2023-05-04T08:09:05.126Z,50.17
2023-05-04T08:11:31.711Z,50.47
2023-05-04T08:13:59.757Z,50.82
2023-05-04T08:16:26.548Z,50.00
2023-05-04T08:18:53.308Z,48.96
2023-05-04T08:21:19.856Z,50.67
2023-05-04T08:23:46.479Z,49.29
2023-05-04T08:26:12.997Z,49.59
2023-05-04T08:28:40.228Z,49.44
2023-05-04T08:31:08.161Z,49.55
2023-05-04T08:33:34.870Z,49.36
2023-05-04T08:36:01.686Z,48.45
2023-05-04T08:38:28.316Z,49.40
2023-05-04T08:40:54.900Z,49.24
2023-05-04T08:43:21.494Z,46.76
2023-05-04T08:45:48.059Z,48.15
2023-05-04T08:48:16.107Z,45.98
2023-05-04T08:50:43.062Z,46.03
2023-05-04T08:53:12.621Z,45.60
2023-05-04T08:55:42.295Z,45.81
2023-05-04T08:58:11.204Z,44.97
2023-05-04T09:00:37.851Z,43.61
2023-05-04T09:03:05.343Z,44.28
2023-05-04T09:05:33.974Z,45.45
2023-05-04T09:08:00.561Z,44.68
2023-05-04T09:10:29.408Z,44.35
2023-05-04T09:12:56.742Z,40.92
2023-05-04T09:15:23.870Z,41.62
2023-05-04T09:17:58.275Z,40.56
2023-05-04T09:20:25.093Z,40.72
2023-05-04T09:23:01.790Z,41.48
2023-05-04T09:25:28.437Z,40.36
2023-05-04T09:27:55.001Z,40.72
2023-05-04T09:30:21.662Z,39.88
2023-05-04T09:32:48.836Z,39.88
2023-05-04T09:35:25.692Z,39.17
2023-05-04T09:37:58.927Z,37.03
2023-05-04T09:40:33.124Z,37.43
2023-05-04T09:42:59.726Z,37.74
2023-05-04T09:45:26.725Z,37.22
2023-05-04T09:47:53.584Z,36.66
2023-05-04T09:50:21.732Z,35.54
2023-05-04T09:52:49.671Z,38.15
2023-05-04T09:55:17.751Z,36.99
2023-05-04T09:57:47.428Z,36.81
2023-05-04T10:00:15.613Z,35.69
2023-05-04T10:02:43.492Z,36.94
2023-05-04T10:05:15.852Z,35.27
2023-05-04T10:07:42.734Z,35.97
2023-05-04T10:10:11.792Z,35.07
2023-05-04T10:12:38.425Z,36.10
2023-05-04T10:15:08.508Z,35.63
2023-05-04T10:17:50.686Z,35.57
2023-05-04T10:20:33.132Z,35.97
2023-05-04T10:23:16.441Z,34.79
2023-05-04T10:26:07.999Z,36.57
2023-05-04T10:28:45.492Z,35.41
2023-05-04T10:31:13.509Z,34.86
2023-05-04T10:33:40.806Z,35.46
2023-05-04T10:36:08.189Z,34.63
2023-05-04T10:38:35.471Z,35.63
2023-05-04T10:41:12.654Z,35.09
2023-05-04T10:43:39.231Z,34.10
2023-05-04T10:46:19.723Z,33.36
2023-05-04T10:48:46.339Z,32.79
2023-05-04T10:51:19.514Z,33.91
2023-05-04T10:53:46.221Z,32.37
2023-05-04T10:56:20.333Z,32.89
2023-05-04T10:58:47.570Z,32.72
2023-05-04T11:01:14.170Z,31.83
2023-05-04T11:03:42.489Z,33.78
2023-05-04T11:06:15.713Z,31.48
2023-05-04T11:08:42.963Z,32.30
2023-05-04T11:11:09.516Z,33.50
2023-05-04T11:13:42.167Z,33.26
2023-05-04T11:16:10.174Z,33.33
2023-05-04T11:18:36.711Z,32.58
2023-05-04T11:21:04.677Z,32.83
2023-05-04T11:23:31.604Z,31.65
2023-05-04T11:25:58.193Z,31.80
2023-05-04T11:28:35.071Z,31.16
2023-05-04T11:31:02.556Z,33.04
2023-05-04T11:33:30.122Z,31.76
2023-05-04T11:36:00.342Z,32.01
2023-05-04T11:38:28.242Z,30.88
2023-05-04T11:40:54.835Z,30.72
2023-05-04T11:43:21.877Z,30.93
2023-05-04T11:45:48.776Z,31.08
2023-05-04T11:48:17.355Z,31.15
2023-05-04T11:50:46.011Z,30.46
2023-05-04T11:53:13.179Z,30.93
2023-05-04T11:55:41.168Z,30.21
2023-05-04T11:58:10.472Z,30.73
2023-05-04T12:00:38.162Z,30.06
2023-05-04T12:03:05.898Z,30.84
2023-05-04T12:05:33.134Z,29.96
2023-05-04T12:08:00.052Z,29.93
2023-05-04T12:10:27.239Z,29.28
2023-05-04T12:12:55.417Z,30.06
2023-05-04T12:15:29.121Z,29.01
2023-05-04T12:17:55.780Z,30.00
2023-05-04T12:20:23.298Z,28.97
2023-05-04T12:22:49.863Z,29.89
2023-05-04T12:25:18.116Z,27.28
2023-05-04T12:27:44.848Z,27.49
2023-05-04T12:30:13.356Z,28.93
2023-05-04T12:32:40.109Z,27.85
2023-05-04T12:35:07.361Z,28.62
2023-05-04T12:37:34.135Z,26.95
2023-05-04T12:40:00.856Z,28.34
2023-05-04T12:42:27.486Z,27.15
2023-05-04T12:44:54.008Z,26.12
2023-05-04T12:47:22.007Z,26.37
2023-05-04T12:49:48.584Z,27.86
2023-05-04T12:52:15.188Z,27.53
2023-05-04T12:54:41.947Z,28.40
2023-05-04T12:57:08.566Z,25.91
2023-05-04T12:59:35.152Z,25.11
2023-05-04T13:02:01.826Z,25.33
2023-05-04T13:04:29.800Z,25.47
2023-05-04T13:06:56.421Z,25.18
2023-05-04T13:09:23.010Z,25.08
2023-05-04T13:11:49.551Z,24.63
2023-05-04T13:14:16.045Z,26.67
2023-05-04T13:16:42.656Z,25.54
2023-05-04T13:19:09.256Z,25.90
2023-05-04T13:21:37.260Z,24.21
2023-05-04T13:24:04.292Z,24.32
2023-05-04T13:26:30.886Z,24.39
2023-05-04T13:28:57.379Z,24.24
2023-05-04T13:31:24.331Z,24.70
2023-05-04T13:33:50.893Z,23.21
2023-05-04T13:36:17.621Z,24.60
2023-05-04T13:38:45.554Z,23.00
2023-05-04T13:41:12.164Z,23.96
2023-05-04T13:43:38.685Z,24.98
2023-05-04T13:46:05.512Z,24.63
2023-05-04T13:48:32.034Z,25.15
2023-05-04T13:50:58.620Z,24.44
2023-05-04T13:53:25.193Z,25.01
2023-05-04T13:55:53.096Z,24.27
2023-05-04T13:58:19.597Z,23.69
2023-05-04T14:00:46.239Z,24.00
2023-05-04T14:03:12.819Z,23.73
2023-05-04T14:05:39.382Z,24.02
2023-05-04T14:08:05.977Z,23.75
2023-05-04T14:10:32.605Z,23.74
2023-05-04T14:13:00.783Z,23.19
2023-05-04T14:15:27.419Z,24.65
2023-05-04T14:17:53.975Z,24.72
2023-05-04T14:20:20.590Z,24.13
2023-05-04T14:22:47.118Z,23.35
2023-05-04T14:25:13.781Z,24.78
2023-05-04T14:27:42.919Z,24.34
2023-05-04T14:30:12.271Z,23.64
2023-05-04T14:32:40.007Z,23.10
2023-05-04T14:35:07.342Z,24.29
2023-05-04T14:37:35.585Z,25.38
2023-05-04T14:40:02.737Z,25.92
2023-05-04T14:42:29.252Z,24.28
2023-05-04T14:44:55.778Z,25.18
2023-05-04T14:47:23.751Z,24.67
2023-05-04T14:49:50.705Z,24.73
2023-05-04T14:52:17.261Z,23.91
2023-05-04T14:54:43.769Z,25.18
2023-05-04T14:57:10.326Z,24.51
2023-05-04T14:59:37.135Z,24.19
2023-05-04T15:02:03.751Z,25.17
2023-05-04T15:04:32.140Z,24.93
2023-05-04T15:06:59.245Z,24.36
2023-05-04T15:09:25.904Z,25.22
2023-05-04T15:11:52.576Z,25.54
2023-05-04T15:14:19.126Z,24.82
2023-05-04T15:16:45.656Z,25.69
2023-05-04T15:19:12.170Z,25.89
2023-05-04T15:21:40.166Z,26.29
2023-05-04T15:24:07.024Z,25.78
2023-05-04T15:26:33.542Z,25.49
2023-05-04T15:29:00.250Z,24.84
2023-05-04T15:31:26.818Z,25.98
2023-05-04T15:33:53.541Z,24.82
2023-05-04T15:36:21.575Z,25.85
2023-05-04T15:38:49.672Z,24.71
2023-05-04T15:41:16.188Z,24.73
2023-05-04T15:43:42.782Z,24.90
2023-05-04T15:46:09.584Z,25.65
2023-05-04T15:48:36.123Z,24.46
2023-05-04T15:51:02.780Z,24.58
2023-05-04T15:53:29.308Z,25.05
2023-05-04T15:55:57.201Z,25.66
2023-05-04T15:58:23.771Z,25.90
2023-05-04T16:00:50.314Z,25.35
2023-05-04T16:03:16.890Z,24.86
2023-05-04T16:05:43.571Z,25.50
2023-05-04T16:08:10.108Z,25.52
2023-05-04T16:10:36.700Z,24.22
2023-05-04T16:13:04.654Z,23.74
2023-05-04T16:15:31.190Z,24.05
2023-05-04T16:17:57.769Z,24.46
2023-05-04T16:20:24.614Z,23.72
2023-05-04T16:22:51.130Z,23.28
2023-05-04T16:25:17.683Z,23.56
2023-05-04T16:27:44.185Z,23.24
2023-05-04T16:30:13.019Z,23.05
2023-05-04T16:32:39.527Z,23.39
2023-05-04T16:35:07.314Z,23.23
2023-05-04T16:37:35.033Z,23.26
2023-05-04T16:40:09.052Z,23.50
2023-05-04T16:42:35.812Z,23.82
2023-05-04T16:45:02.339Z,24.84
2023-05-04T16:47:30.257Z,24.21
2023-05-04T16:49:56.767Z,24.11
2023-05-04T16:52:23.392Z,23.98
2023-05-04T16:54:49.912Z,24.50
2023-05-04T16:57:16.456Z,24.53
2023-05-04T16:59:42.966Z,24.57
2023-05-04T17:02:09.630Z,22.96
2023-05-04T17:04:37.640Z,23.33
2023-05-04T17:07:04.380Z,23.89
2023-05-04T17:09:30.908Z,23.50
2023-05-04T17:11:57.564Z,23.72
2023-05-04T17:14:24.136Z,22.68
2023-05-04T17:16:50.694Z,22.98
2023-05-04T17:19:17.270Z,23.64
2023-05-04T17:21:45.275Z,23.40
2023-05-04T17:24:12.035Z,23.97
2023-05-04T17:26:38.661Z,24.08
2023-05-04T17:29:06.863Z,23.55
2023-05-04T17:31:33.718Z,23.60
2023-05-04T17:34:00.298Z,23.82
2023-05-04T17:36:26.861Z,23.56
2023-05-04T17:38:54.726Z,23.54
2023-05-04T17:41:21.341Z,24.27
2023-05-04T17:43:47.977Z,25.24
2023-05-04T17:46:14.626Z,25.75
2023-05-04T17:48:41.258Z,26.16
2023-05-04T17:51:08.818Z,25.81
2023-05-04T17:53:35.388Z,26.82
2023-05-04T17:56:03.596Z,27.26
2023-05-04T17:58:30.153Z,27.38
2023-05-04T18:00:56.757Z,28.41
2023-05-04T18:03:23.333Z,29.78
2023-05-04T18:05:50.020Z,30.26
2023-05-04T18:08:16.586Z,29.49
2023-05-04T18:10:43.170Z,30.82
2023-05-04T18:13:11.137Z,31.35
2023-05-04T18:15:37.895Z,32.24
2023-05-04T18:18:04.655Z,33.10
2023-05-04T18:20:31.490Z,33.88
2023-05-04T18:22:58.052Z,34.09
2023-05-04T18:25:24.875Z,34.26
2023-05-04T18:27:51.483Z,35.15
2023-05-04T18:30:19.439Z,35.97
2023-05-04T18:32:46.075Z,36.91
2023-05-04T18:35:13.075Z,36.72
2023-05-04T18:37:39.592Z,36.75
2023-05-04T18:40:07.800Z,37.77
2023-05-04T18:42:34.442Z,38.07
2023-05-04T18:45:01.147Z,38.31
2023-05-04T18:47:29.058Z,38.30
2023-05-04T18:49:55.728Z,38.81
2023-05-04T18:52:22.345Z,39.56
2023-05-04T18:54:48.889Z,39.93
2023-05-04T18:57:15.454Z,40.59
2023-05-04T18:59:42.991Z,40.79
2023-05-04T19:02:09.522Z,42.04
2023-05-04T19:04:37.460Z,43.13
2023-05-04T19:07:03.996Z,43.78
2023-05-04T19:09:30.570Z,44.14
2023-05-04T19:11:57.132Z,45.13
2023-05-04T19:14:23.721Z,45.34
2023-05-04T19:16:50.643Z,45.84
2023-05-04T19:19:17.225Z,46.42
2023-05-04T19:21:45.174Z,46.55
2023-05-04T19:24:11.741Z,47.25
2023-05-04T19:26:38.292Z,47.72
2023-05-04T19:29:04.892Z,47.85
2023-05-04T19:31:31.439Z,47.97
2023-05-04T19:33:58.046Z,48.60
2023-05-04T19:36:24.641Z,48.70
2023-05-04T19:38:52.812Z,49.30
2023-05-04T19:41:19.458Z,49.50
2023-05-04T19:43:46.098Z,50.00
2023-05-04T19:46:12.648Z,50.63
2023-05-04T19:48:39.314Z,50.69
2023-05-04T19:51:05.820Z,51.01
2023-05-04T19:53:32.366Z,51.42
2023-05-04T19:56:00.245Z,51.52
2023-05-04T19:58:26.864Z,51.57
2023-05-04T20:00:53.529Z,51.84
2023-05-04T20:03:20.271Z,51.72
2023-05-04T20:05:46.853Z,51.67
2023-05-04T20:08:13.480Z,52.22
2023-05-04T20:10:40.064Z,52.33
2023-05-04T20:13:08.111Z,53.08
2023-05-04T20:15:34.755Z,53.74
2023-05-04T20:18:01.394Z,54.44
2023-05-04T20:20:28.074Z,54.98
2023-05-04T20:22:54.670Z,55.11
2023-05-04T20:25:21.288Z,55.87
2023-05-04T20:27:47.941Z,56.20
2023-05-04T20:30:15.837Z,56.51
2023-05-04T20:32:42.486Z,56.69
2023-05-04T20:35:09.625Z,57.67
2023-05-04T20:37:36.252Z,58.55
2023-05-04T20:40:02.853Z,58.72
2023-05-04T20:42:29.731Z,58.79
2023-05-04T20:44:56.296Z,59.61
2023-05-04T20:47:24.434Z,59.77
2023-05-04T20:49:51.005Z,60.49
2023-05-04T20:52:17.551Z,60.94
2023-05-04T20:54:44.082Z,61.29
2023-05-04T20:57:10.734Z,61.92
2023-05-04T20:59:37.258Z,62.55
2023-05-04T21:02:03.817Z,62.75
2023-05-04T21:04:31.763Z,63.27
2023-05-04T21:06:58.343Z,63.73
2023-05-04T21:09:24.842Z,63.72
2023-05-04T21:11:51.426Z,64.06
2023-05-04T21:14:17.954Z,64.45
2023-05-04T21:16:44.551Z,64.78
2023-05-04T21:19:11.118Z,64.82
2023-05-04T21:21:39.053Z,65.03
2023-05-04T21:24:09.617Z,65.42
2023-05-04T21:26:36.227Z,65.52
2023-05-04T21:29:02.740Z,66.44
2023-05-04T21:31:29.275Z,66.56
2023-05-04T21:33:55.818Z,66.71
2023-05-04T21:36:22.405Z,66.93
2023-05-04T21:38:50.222Z,67.65
2023-05-04T21:41:16.854Z,68.01
2023-05-04T21:43:43.548Z,68.17
2023-05-04T21:46:10.311Z,68.34
2023-05-04T21:48:36.861Z,68.79
2023-05-04T21:51:03.536Z,69.10
2023-05-04T21:53:30.068Z,69.30
2023-05-04T21:55:58.004Z,69.18
2023-05-04T21:58:24.490Z,69.37
2023-05-04T22:00:51.137Z,69.56
2023-05-04T22:03:17.805Z,69.65
2023-05-04T22:05:50.803Z,69.95
2023-05-04T22:08:17.381Z,69.75
2023-05-04T22:10:43.896Z,69.63
2023-05-04T22:13:11.900Z,70.34
2023-05-04T22:15:48.932Z,70.20
2023-05-04T22:18:16.837Z,70.60
2023-05-04T22:20:43.366Z,71.00
2023-05-04T22:23:09.958Z,71.38
2023-05-04T22:25:36.730Z,71.07
2023-05-04T22:28:03.538Z,70.99
2023-05-04T22:30:31.583Z,71.25
2023-05-04T22:32:58.318Z,71.67
2023-05-04T22:35:24.895Z,71.83
2023-05-04T22:37:51.487Z,71.76
2023-05-04T22:40:18.227Z,71.78
2023-05-04T22:42:44.853Z,72.51
2023-05-04T22:45:12.430Z,72.85
2023-05-04T22:47:40.903Z,72.84
2023-05-04T22:50:09.115Z,72.32
2023-05-04T22:52:36.016Z,72.08
2023-05-04T22:55:02.605Z,72.01
2023-05-04T22:57:29.197Z,72.02
2023-05-04T22:59:55.762Z,72.73
2023-05-04T23:02:22.529Z,72.47
2023-05-04T23:04:50.455Z,72.89
2023-05-04T23:07:17.023Z,73.08
2023-05-04T23:09:44.205Z,72.88
2023-05-04T23:12:10.769Z,73.33
2023-05-04T23:14:37.274Z,73.50
2023-05-04T23:17:04.256Z,73.49
2023-05-04T23:19:30.779Z,73.02
2023-05-04T23:21:58.780Z,73.61
2023-05-04T23:24:25.386Z,74.08
2023-05-04T23:26:52.064Z,73.36
2023-05-04T23:29:18.604Z,73.55
2023-05-04T23:31:45.232Z,74.04
2023-05-04T23:34:11.829Z,74.22
2023-05-04T23:36:38.409Z,74.28
2023-05-04T23:39:06.297Z,74.20
2023-05-04T23:41:32.883Z,74.96
2023-05-04T23:43:59.602Z,75.14
2023-05-04T23:46:26.332Z,74.78
2023-05-04T23:48:52.945Z,74.25
2023-05-04T23:51:19.564Z,75.01
2023-05-04T23:53:46.144Z,74.98
2023-05-04T23:56:14.124Z,74.77
2023-05-04T23:58:41.725Z,74.79
